sensor_id;sensor_type;location;lat;lon;timestamp;temperature;humidity
11744;DHT22;5929;51.906;7.674;2023-07-20T00:01:20;16.60;99.90
11744;DHT22;5929;51.906;7.674;2023-07-20T00:03:49;16.50;99.90
11744;DHT22;5929;51.906;7.674;2023-07-20T00:06:21;16.50;99.90
11744;DHT22;5929;51.906;7.674;2023-07-20T00:08:49;16.50;99.90
11744;DHT22;5929;51.906;7.674;2023-07-20T00:11:16;16.50;99.90
11744;DHT22;5929;51.906;7.674;2023-07-20T00:13:43;16.50;99.90
11744;DHT22;5929;51.906;7.674;2023-07-20T00:16:10;16.50;99.90
11744;DHT22;5929;51.906;7.674;2023-07-20T00:18:37;16.50;99.90
11744;DHT22;5929;51.906;7.674;2023-07-20T00:21:03;16.50;99.90
11744;DHT22;5929;51.906;7.674;2023-07-20T00:23:32;16.50;99.90
11744;DHT22;5929;51.906;7.674;2023-07-20T00:25:58;16.50;99.90
11744;DHT22;5929;51.906;7.674;2023-07-20T00:28:25;16.40;99.90
11744;DHT22;5929;51.906;7.674;2023-07-20T00:30:52;16.40;99.90
11744;DHT22;5929;51.906;7.674;2023-07-20T00:33:19;16.30;99.90
11744;DHT22;5929;51.906;7.674;2023-07-20T00:35:46;16.30;99.90
11744;DHT22;5929;51.906;7.674;2023-07-20T00:38:13;16.30;99.90
11744;DHT22;5929;51.906;7.674;2023-07-20T00:40:41;16.30;99.90
11744;DHT22;5929;51.906;7.674;2023-07-20T00:43:08;16.20;99.90
11744;DHT22;5929;51.906;7.674;2023-07-20T00:45:36;16.20;99.90
11744;DHT22;5929;51.906;7.674;2023-07-20T00:48:04;16.20;99.90
11744;DHT22;5929;51.906;7.674;2023-07-20T00:50:32;16.20;99.90
11744;DHT22;5929;51.906;7.674;2023-07-20T00:52:59;16.10;99.90
11744;DHT22;5929;51.906;7.674;2023-07-20T00:55:27;16.10;99.90
11744;DHT22;5929;51.906;7.674;2023-07-20T00:57:56;16.10;99.90
11744;DHT22;5929;51.906;7.674;2023-07-20T01:00:23;16.10;99.90
11744;DHT22;5929;51.906;7.674;2023-07-20T01:02:49;16.10;99.90
11744;DHT22;5929;51.906;7.674;2023-07-20T01:05:16;16.10;99.90
11744;DHT22;5929;51.906;7.674;2023-07-20T01:07:48;16.00;99.90
11744;DHT22;5929;51.906;7.674;2023-07-20T01:10:20;16.10;99.90
11744;DHT22;5929;51.906;7.674;2023-07-20T01:12:52;16.10;99.90
11744;DHT22;5929;51.906;7.674;2023-07-20T01:15:21;16.00;99.90
11744;DHT22;5929;51.906;7.674;2023-07-20T01:17:48;16.10;99.90
11744;DHT22;5929;51.906;7.674;2023-07-20T01:20:16;16.10;99.90
11744;DHT22;5929;51.906;7.674;2023-07-20T01:23:01;16.10;99.90
11744;DHT22;5929;51.906;7.674;2023-07-20T01:25:53;16.10;99.90
11744;DHT22;5929;51.906;7.674;2023-07-20T01:29:01;16.10;99.90
11744;DHT22;5929;51.906;7.674;2023-07-20T01:31:36;16.10;99.90
11744;DHT22;5929;51.906;7.674;2023-07-20T01:34:06;16.10;99.90
11744;DHT22;5929;51.906;7.674;2023-07-20T01:36:36;16.10;99.90
11744;DHT22;5929;51.906;7.674;2023-07-20T01:39:04;16.10;99.90
11744;DHT22;5929;51.906;7.674;2023-07-20T01:41:33;16.10;99.90
11744;DHT22;5929;51.906;7.674;2023-07-20T01:44:04;16.10;99.90
11744;DHT22;5929;51.906;7.674;2023-07-20T01:46:30;16.10;99.90
11744;DHT22;5929;51.906;7.674;2023-07-20T01:48:59;16.10;99.90
11744;DHT22;5929;51.906;7.674;2023-07-20T01:51:26;16.10;99.90
11744;DHT22;5929;51.906;7.674;2023-07-20T01:53:52;16.20;99.90
11744;DHT22;5929;51.906;7.674;2023-07-20T01:56:20;16.20;99.90
11744;DHT22;5929;51.906;7.674;2023-07-20T01:58:47;16.20;99.90
11744;DHT22;5929;51.906;7.674;2023-07-20T02:01:13;16.20;99.90
11744;DHT22;5929;51.906;7.674;2023-07-20T02:03:43;16.30;99.90
11744;DHT22;5929;51.906;7.674;2023-07-20T02:06:11;16.20;99.90
11744;DHT22;5929;51.906;7.674;2023-07-20T02:08:38;16.10;99.90
11744;DHT22;5929;51.906;7.674;2023-07-20T02:11:04;16.00;99.90
11744;DHT22;5929;51.906;7.674;2023-07-20T02:13:31;16.00;99.90
11744;DHT22;5929;51.906;7.674;2023-07-20T02:15:58;16.00;99.90
11744;DHT22;5929;51.906;7.674;2023-07-20T02:18:25;16.00;99.90
11744;DHT22;5929;51.906;7.674;2023-07-20T02:20:53;16.00;99.90
11744;DHT22;5929;51.906;7.674;2023-07-20T02:23:21;16.00;99.90
11744;DHT22;5929;51.906;7.674;2023-07-20T02:25:48;15.90;99.90
11744;DHT22;5929;51.906;7.674;2023-07-20T02:28:14;15.90;99.90
11744;DHT22;5929;51.906;7.674;2023-07-20T02:30:41;15.90;99.90
11744;DHT22;5929;51.906;7.674;2023-07-20T02:33:08;15.90;99.90
11744;DHT22;5929;51.906;7.674;2023-07-20T02:35:35;15.80;99.90
11744;DHT22;5929;51.906;7.674;2023-07-20T02:38:02;15.50;99.90
11744;DHT22;5929;51.906;7.674;2023-07-20T02:40:31;15.40;99.90
11744;DHT22;5929;51.906;7.674;2023-07-20T02:42:58;15.30;99.90
11744;DHT22;5929;51.906;7.674;2023-07-20T02:45:27;15.30;99.90
11744;DHT22;5929;51.906;7.674;2023-07-20T02:47:53;15.30;99.90
11744;DHT22;5929;51.906;7.674;2023-07-20T02:50:20;15.20;99.90
11744;DHT22;5929;51.906;7.674;2023-07-20T02:52:47;15.20;99.90
11744;DHT22;5929;51.906;7.674;2023-07-20T02:55:14;15.30;99.90
11744;DHT22;5929;51.906;7.674;2023-07-20T02:57:42;15.30;99.90
11744;DHT22;5929;51.906;7.674;2023-07-20T03:00:10;15.20;99.90
11744;DHT22;5929;51.906;7.674;2023-07-20T03:02:37;15.20;99.90
11744;DHT22;5929;51.906;7.674;2023-07-20T03:05:05;15.20;99.90
11744;DHT22;5929;51.906;7.674;2023-07-20T03:07:32;15.20;99.90
11744;DHT22;5929;51.906;7.674;2023-07-20T03:09:59;15.10;99.90
11744;DHT22;5929;51.906;7.674;2023-07-20T03:12:26;15.00;99.90
11744;DHT22;5929;51.906;7.674;2023-07-20T03:14:54;15.00;99.90
11744;DHT22;5929;51.906;7.674;2023-07-20T03:17:22;14.90;99.90
11744;DHT22;5929;51.906;7.674;2023-07-20T03:19:49;14.80;99.90
11744;DHT22;5929;51.906;7.674;2023-07-20T03:22:16;14.70;99.90
11744;DHT22;5929;51.906;7.674;2023-07-20T03:24:43;14.80;99.90
11744;DHT22;5929;51.906;7.674;2023-07-20T03:27:09;14.80;99.90
11744;DHT22;5929;51.906;7.674;2023-07-20T03:29:36;14.80;99.90
11744;DHT22;5929;51.906;7.674;2023-07-20T03:32:05;14.90;99.90
11744;DHT22;5929;51.906;7.674;2023-07-20T03:34:34;14.80;99.90
11744;DHT22;5929;51.906;7.674;2023-07-20T03:37:01;14.90;99.90
11744;DHT22;5929;51.906;7.674;2023-07-20T03:39:29;14.90;99.90
11744;DHT22;5929;51.906;7.674;2023-07-20T03:41:57;14.80;99.90
11744;DHT22;5929;51.906;7.674;2023-07-20T03:44:26;14.80;99.90
11744;DHT22;5929;51.906;7.674;2023-07-20T03:46:53;14.80;99.90
11744;DHT22;5929;51.906;7.674;2023-07-20T03:49:21;14.80;99.90
11744;DHT22;5929;51.906;7.674;2023-07-20T03:51:48;14.80;99.90
11744;DHT22;5929;51.906;7.674;2023-07-20T03:54:14;14.80;99.90
11744;DHT22;5929;51.906;7.674;2023-07-20T03:56:41;14.90;99.90
11744;DHT22;5929;51.906;7.674;2023-07-20T03:59:08;14.80;99.90
11744;DHT22;5929;51.906;7.674;2023-07-20T04:01:35;14.80;99.90
11744;DHT22;5929;51.906;7.674;2023-07-20T04:04:05;14.90;99.90
11744;DHT22;5929;51.906;7.674;2023-07-20T04:06:34;14.90;99.90
11744;DHT22;5929;51.906;7.674;2023-07-20T04:09:01;14.90;99.90
11744;DHT22;5929;51.906;7.674;2023-07-20T04:11:28;14.90;99.90
11744;DHT22;5929;51.906;7.674;2023-07-20T04:13:55;14.80;99.90
11744;DHT22;5929;51.906;7.674;2023-07-20T04:16:22;14.70;99.90
11744;DHT22;5929;51.906;7.674;2023-07-20T04:18:48;14.80;99.90
11744;DHT22;5929;51.906;7.674;2023-07-20T04:21:15;14.80;99.90
11744;DHT22;5929;51.906;7.674;2023-07-20T04:23:45;14.80;99.90
11744;DHT22;5929;51.906;7.674;2023-07-20T04:26:12;14.80;99.90
11744;DHT22;5929;51.906;7.674;2023-07-20T04:28:40;14.80;99.90
11744;DHT22;5929;51.906;7.674;2023-07-20T04:31:11;14.80;99.90
11744;DHT22;5929;51.906;7.674;2023-07-20T04:33:38;14.70;99.90
11744;DHT22;5929;51.906;7.674;2023-07-20T04:36:06;14.70;99.90
11744;DHT22;5929;51.906;7.674;2023-07-20T04:38:33;14.70;99.90
11744;DHT22;5929;51.906;7.674;2023-07-20T04:41:01;14.70;99.90
11744;DHT22;5929;51.906;7.674;2023-07-20T04:43:29;14.80;99.90
11744;DHT22;5929;51.906;7.674;2023-07-20T04:45:56;14.70;99.90
11744;DHT22;5929;51.906;7.674;2023-07-20T04:48:25;14.70;99.90
11744;DHT22;5929;51.906;7.674;2023-07-20T04:50:52;14.60;99.90
11744;DHT22;5929;51.906;7.674;2023-07-20T04:53:21;14.70;99.90
11744;DHT22;5929;51.906;7.674;2023-07-20T04:55:49;14.70;99.90
11744;DHT22;5929;51.906;7.674;2023-07-20T04:58:22;14.70;99.90
11744;DHT22;5929;51.906;7.674;2023-07-20T05:00:49;14.80;99.90
11744;DHT22;5929;51.906;7.674;2023-07-20T05:03:16;14.70;99.90
11744;DHT22;5929;51.906;7.674;2023-07-20T05:05:43;14.70;99.90
11744;DHT22;5929;51.906;7.674;2023-07-20T05:08:10;14.80;99.90
11744;DHT22;5929;51.906;7.674;2023-07-20T05:10:37;14.80;99.90
11744;DHT22;5929;51.906;7.674;2023-07-20T05:13:03;14.80;99.90
11744;DHT22;5929;51.906;7.674;2023-07-20T05:15:32;14.80;99.90
11744;DHT22;5929;51.906;7.674;2023-07-20T05:17:59;14.80;99.90
11744;DHT22;5929;51.906;7.674;2023-07-20T05:20:26;14.90;99.90
11744;DHT22;5929;51.906;7.674;2023-07-20T05:22:53;14.90;99.90
11744;DHT22;5929;51.906;7.674;2023-07-20T05:25:20;15.00;99.90
11744;DHT22;5929;51.906;7.674;2023-07-20T05:27:48;14.90;99.90
11744;DHT22;5929;51.906;7.674;2023-07-20T05:30:16;15.00;99.90
11744;DHT22;5929;51.906;7.674;2023-07-20T05:32:46;15.00;99.90
11744;DHT22;5929;51.906;7.674;2023-07-20T05:35:17;15.00;99.90
11744;DHT22;5929;51.906;7.674;2023-07-20T05:37:43;15.00;99.90
11744;DHT22;5929;51.906;7.674;2023-07-20T05:40:11;14.90;99.90
11744;DHT22;5929;51.906;7.674;2023-07-20T05:42:38;14.90;99.90
11744;DHT22;5929;51.906;7.674;2023-07-20T05:45:06;14.80;99.90
11744;DHT22;5929;51.906;7.674;2023-07-20T05:47:33;14.80;99.90
11744;DHT22;5929;51.906;7.674;2023-07-20T05:50:01;14.70;99.90
11744;DHT22;5929;51.906;7.674;2023-07-20T05:52:29;14.80;99.90
11744;DHT22;5929;51.906;7.674;2023-07-20T05:54:56;14.60;99.90
11744;DHT22;5929;51.906;7.674;2023-07-20T05:57:23;14.60;99.90
11744;DHT22;5929;51.906;7.674;2023-07-20T05:59:50;14.50;99.90
11744;DHT22;5929;51.906;7.674;2023-07-20T06:02:16;14.50;99.90
11744;DHT22;5929;51.906;7.674;2023-07-20T06:04:43;14.40;99.90
11744;DHT22;5929;51.906;7.674;2023-07-20T06:07:12;14.50;99.90
11744;DHT22;5929;51.906;7.674;2023-07-20T06:09:39;14.50;99.90
11744;DHT22;5929;51.906;7.674;2023-07-20T06:12:07;14.60;99.90
11744;DHT22;5929;51.906;7.674;2023-07-20T06:14:34;14.80;99.90
11744;DHT22;5929;51.906;7.674;2023-07-20T06:17:01;14.80;99.90
11744;DHT22;5929;51.906;7.674;2023-07-20T06:19:28;14.90;99.90
11744;DHT22;5929;51.906;7.674;2023-07-20T06:21:55;15.10;99.90
11744;DHT22;5929;51.906;7.674;2023-07-20T06:24:23;15.10;99.90
11744;DHT22;5929;51.906;7.674;2023-07-20T06:26:50;15.10;99.90
11744;DHT22;5929;51.906;7.674;2023-07-20T06:29:16;15.10;99.90
11744;DHT22;5929;51.906;7.674;2023-07-20T06:31:44;14.90;99.90
11744;DHT22;5929;51.906;7.674;2023-07-20T06:34:11;14.80;99.90
11744;DHT22;5929;51.906;7.674;2023-07-20T06:36:38;14.80;99.90
11744;DHT22;5929;51.906;7.674;2023-07-20T06:39:05;14.90;99.90
11744;DHT22;5929;51.906;7.674;2023-07-20T06:41:33;15.00;99.90
11744;DHT22;5929;51.906;7.674;2023-07-20T06:44:00;15.00;99.90
11744;DHT22;5929;51.906;7.674;2023-07-20T06:46:27;15.00;99.90
11744;DHT22;5929;51.906;7.674;2023-07-20T06:48:54;15.00;99.90
11744;DHT22;5929;51.906;7.674;2023-07-20T06:51:22;14.90;99.90
11744;DHT22;5929;51.906;7.674;2023-07-20T06:53:49;15.00;99.90
11744;DHT22;5929;51.906;7.674;2023-07-20T06:56:16;15.10;99.90
11744;DHT22;5929;51.906;7.674;2023-07-20T06:58:44;15.20;99.90
11744;DHT22;5929;51.906;7.674;2023-07-20T07:01:11;15.20;99.90
11744;DHT22;5929;51.906;7.674;2023-07-20T07:03:37;15.20;99.90
11744;DHT22;5929;51.906;7.674;2023-07-20T07:06:04;15.10;99.90
11744;DHT22;5929;51.906;7.674;2023-07-20T07:08:31;15.10;99.90
11744;DHT22;5929;51.906;7.674;2023-07-20T07:10:58;15.10;99.90
11744;DHT22;5929;51.906;7.674;2023-07-20T07:13:25;15.20;99.90
11744;DHT22;5929;51.906;7.674;2023-07-20T07:15:53;15.20;99.90
11744;DHT22;5929;51.906;7.674;2023-07-20T07:18:20;15.20;99.90
11744;DHT22;5929;51.906;7.674;2023-07-20T07:20:51;15.00;99.90
11744;DHT22;5929;51.906;7.674;2023-07-20T07:23:18;15.10;99.90
11744;DHT22;5929;51.906;7.674;2023-07-20T07:25:45;15.00;99.90
11744;DHT22;5929;51.906;7.674;2023-07-20T07:28:12;15.10;99.90
11744;DHT22;5929;51.906;7.674;2023-07-20T07:30:40;15.10;99.90
11744;DHT22;5929;51.906;7.674;2023-07-20T07:33:08;15.10;99.90
11744;DHT22;5929;51.906;7.674;2023-07-20T07:35:35;15.20;99.90
11744;DHT22;5929;51.906;7.674;2023-07-20T07:38:02;15.20;99.90
11744;DHT22;5929;51.906;7.674;2023-07-20T07:44:03;15.30;99.90
11744;DHT22;5929;51.906;7.674;2023-07-20T07:46:40;15.30;99.90
11744;DHT22;5929;51.906;7.674;2023-07-20T07:49:08;15.30;99.90
11744;DHT22;5929;51.906;7.674;2023-07-20T07:51:35;15.30;99.90
11744;DHT22;5929;51.906;7.674;2023-07-20T07:54:04;15.20;99.90
11744;DHT22;5929;51.906;7.674;2023-07-20T07:56:31;15.30;99.90
11744;DHT22;5929;51.906;7.674;2023-07-20T07:58:58;15.40;99.90
11744;DHT22;5929;51.906;7.674;2023-07-20T08:01:25;15.60;99.90
11744;DHT22;5929;51.906;7.674;2023-07-20T08:03:52;15.70;99.90
11744;DHT22;5929;51.906;7.674;2023-07-20T08:06:20;15.90;99.90
11744;DHT22;5929;51.906;7.674;2023-07-20T08:08:47;16.10;99.90
11744;DHT22;5929;51.906;7.674;2023-07-20T08:11:13;16.10;99.90
11744;DHT22;5929;51.906;7.674;2023-07-20T08:13:40;16.30;99.90
11744;DHT22;5929;51.906;7.674;2023-07-20T08:16:07;16.40;99.90
11744;DHT22;5929;51.906;7.674;2023-07-20T08:18:34;16.50;99.90
11744;DHT22;5929;51.906;7.674;2023-07-20T08:21:00;16.60;99.90
11744;DHT22;5929;51.906;7.674;2023-07-20T08:23:29;16.70;99.90
11744;DHT22;5929;51.906;7.674;2023-07-20T08:25:56;16.80;99.90
11744;DHT22;5929;51.906;7.674;2023-07-20T08:28:23;17.00;99.90
11744;DHT22;5929;51.906;7.674;2023-07-20T08:30:52;17.00;99.90
11744;DHT22;5929;51.906;7.674;2023-07-20T08:33:19;16.90;99.90
11744;DHT22;5929;51.906;7.674;2023-07-20T08:35:47;17.00;99.90
11744;DHT22;5929;51.906;7.674;2023-07-20T08:38:14;17.00;99.90
11744;DHT22;5929;51.906;7.674;2023-07-20T08:40:44;16.80;99.90
11744;DHT22;5929;51.906;7.674;2023-07-20T08:43:11;16.80;99.90
11744;DHT22;5929;51.906;7.674;2023-07-20T08:45:39;16.90;99.90
11744;DHT22;5929;51.906;7.674;2023-07-20T08:48:07;16.90;99.90
11744;DHT22;5929;51.906;7.674;2023-07-20T08:50:35;17.00;99.90
11744;DHT22;5929;51.906;7.674;2023-07-20T08:53:02;17.10;99.90
11744;DHT22;5929;51.906;7.674;2023-07-20T08:55:29;17.10;99.90
11744;DHT22;5929;51.906;7.674;2023-07-20T08:57:59;17.10;99.90
11744;DHT22;5929;51.906;7.674;2023-07-20T09:00:27;17.20;99.90
11744;DHT22;5929;51.906;7.674;2023-07-20T09:02:55;17.30;99.90
11744;DHT22;5929;51.906;7.674;2023-07-20T09:05:23;17.40;99.90
11744;DHT22;5929;51.906;7.674;2023-07-20T09:07:51;17.40;99.90
11744;DHT22;5929;51.906;7.674;2023-07-20T09:10:20;17.50;99.90
11744;DHT22;5929;51.906;7.674;2023-07-20T09:12:47;17.60;99.90
11744;DHT22;5929;51.906;7.674;2023-07-20T09:15:16;17.60;99.90
11744;DHT22;5929;51.906;7.674;2023-07-20T09:17:46;17.70;99.90
11744;DHT22;5929;51.906;7.674;2023-07-20T09:20:14;17.80;99.90
11744;DHT22;5929;51.906;7.674;2023-07-20T09:22:42;18.00;99.90
11744;DHT22;5929;51.906;7.674;2023-07-20T09:25:11;18.10;99.90
11744;DHT22;5929;51.906;7.674;2023-07-20T09:27:40;18.10;99.90
11744;DHT22;5929;51.906;7.674;2023-07-20T09:30:08;18.20;99.90
11744;DHT22;5929;51.906;7.674;2023-07-20T09:32:42;18.10;99.90
11744;DHT22;5929;51.906;7.674;2023-07-20T09:35:13;18.10;99.90
11744;DHT22;5929;51.906;7.674;2023-07-20T09:37:46;18.20;99.80
11744;DHT22;5929;51.906;7.674;2023-07-20T09:40:15;18.30;97.60
11744;DHT22;5929;51.906;7.674;2023-07-20T09:42:45;18.30;97.60
11744;DHT22;5929;51.906;7.674;2023-07-20T09:45:12;18.50;97.90
11744;DHT22;5929;51.906;7.674;2023-07-20T09:47:40;18.60;93.90
11744;DHT22;5929;51.906;7.674;2023-07-20T09:50:08;18.80;96.20
11744;DHT22;5929;51.906;7.674;2023-07-20T09:52:39;18.90;96.60
11744;DHT22;5929;51.906;7.674;2023-07-20T09:55:07;18.90;96.50
11744;DHT22;5929;51.906;7.674;2023-07-20T09:57:35;18.60;96.60
11744;DHT22;5929;51.906;7.674;2023-07-20T10:00:04;18.50;96.00
11744;DHT22;5929;51.906;7.674;2023-07-20T10:02:43;18.30;96.00
11744;DHT22;5929;51.906;7.674;2023-07-20T10:05:12;18.30;96.50
11744;DHT22;5929;51.906;7.674;2023-07-20T10:07:44;18.50;97.80
11744;DHT22;5929;51.906;7.674;2023-07-20T10:10:16;18.70;97.30
11744;DHT22;5929;51.906;7.674;2023-07-20T10:12:46;19.10;95.60
11744;DHT22;5929;51.906;7.674;2023-07-20T10:15:18;19.50;95.70
11744;DHT22;5929;51.906;7.674;2023-07-20T10:17:58;19.60;93.90
11744;DHT22;5929;51.906;7.674;2023-07-20T10:21:22;19.70;95.60
11744;DHT22;5929;51.906;7.674;2023-07-20T10:23:43;19.60;93.30
11744;DHT22;5929;51.906;7.674;2023-07-20T10:26:11;19.30;97.10
11744;DHT22;5929;51.906;7.674;2023-07-20T10:28:38;19.00;95.60
11744;DHT22;5929;51.906;7.674;2023-07-20T10:31:07;19.00;96.20
11744;DHT22;5929;51.906;7.674;2023-07-20T10:33:39;19.10;94.80
11744;DHT22;5929;51.906;7.674;2023-07-20T10:36:06;19.30;95.20
11744;DHT22;5929;51.906;7.674;2023-07-20T10:38:39;19.20;94.80
11744;DHT22;5929;51.906;7.674;2023-07-20T10:41:16;19.10;94.30
11744;DHT22;5929;51.906;7.674;2023-07-20T10:43:44;18.90;93.80
11744;DHT22;5929;51.906;7.674;2023-07-20T10:46:11;18.80;94.10
11744;DHT22;5929;51.906;7.674;2023-07-20T10:49:03;18.90;94.60
11744;DHT22;5929;51.906;7.674;2023-07-20T10:51:38;19.40;94.20
11744;DHT22;5929;51.906;7.674;2023-07-20T10:54:08;19.70;92.30
11744;DHT22;5929;51.906;7.674;2023-07-20T10:56:37;20.00;92.10
11744;DHT22;5929;51.906;7.674;2023-07-20T10:59:17;20.40;92.70
11744;DHT22;5929;51.906;7.674;2023-07-20T11:01:46;20.60;93.40
11744;DHT22;5929;51.906;7.674;2023-07-20T11:04:16;21.00;92.10
11744;DHT22;5929;51.906;7.674;2023-07-20T11:06:44;21.20;92.90
11744;DHT22;5929;51.906;7.674;2023-07-20T11:09:13;21.10;87.00
11744;DHT22;5929;51.906;7.674;2023-07-20T11:11:41;21.10;87.20
11744;DHT22;5929;51.906;7.674;2023-07-20T11:14:10;21.10;86.10
11744;DHT22;5929;51.906;7.674;2023-07-20T11:16:39;21.30;87.20
11744;DHT22;5929;51.906;7.674;2023-07-20T11:19:14;21.30;85.70
11744;DHT22;5929;51.906;7.674;2023-07-20T11:21:44;21.10;86.40
11744;DHT22;5929;51.906;7.674;2023-07-20T11:24:12;21.30;88.90
11744;DHT22;5929;51.906;7.674;2023-07-20T11:26:46;21.20;87.70
11744;DHT22;5929;51.906;7.674;2023-07-20T11:29:13;21.50;87.20
11744;DHT22;5929;51.906;7.674;2023-07-20T11:31:41;22.40;89.20
11744;DHT22;5929;51.906;7.674;2023-07-20T11:34:11;23.10;90.70
11744;DHT22;5929;51.906;7.674;2023-07-20T11:36:39;23.80;84.90
11744;DHT22;5929;51.906;7.674;2023-07-20T11:39:08;24.50;78.70
11744;DHT22;5929;51.906;7.674;2023-07-20T11:41:35;25.10;78.10
11744;DHT22;5929;51.906;7.674;2023-07-20T11:44:04;25.60;73.70
11744;DHT22;5929;51.906;7.674;2023-07-20T11:46:32;25.90;72.40
11744;DHT22;5929;51.906;7.674;2023-07-20T11:48:59;24.90;73.50
11744;DHT22;5929;51.906;7.674;2023-07-20T11:51:30;23.80;75.80
11744;DHT22;5929;51.906;7.674;2023-07-20T11:53:57;23.00;77.40
11744;DHT22;5929;51.906;7.674;2023-07-20T11:56:26;22.50;81.50
11744;DHT22;5929;51.906;7.674;2023-07-20T11:58:58;22.60;79.50
11744;DHT22;5929;51.906;7.674;2023-07-20T12:01:29;23.30;73.80
11744;DHT22;5929;51.906;7.674;2023-07-20T12:03:58;23.90;72.20
11744;DHT22;5929;51.906;7.674;2023-07-20T12:06:28;24.50;72.20
11744;DHT22;5929;51.906;7.674;2023-07-20T12:08:56;25.40;72.40
11744;DHT22;5929;51.906;7.674;2023-07-20T12:11:38;26.20;70.50
11744;DHT22;5929;51.906;7.674;2023-07-20T12:14:07;26.60;69.30
11744;DHT22;5929;51.906;7.674;2023-07-20T12:16:37;26.60;73.50
11744;DHT22;5929;51.906;7.674;2023-07-20T12:19:05;27.30;67.00
11744;DHT22;5929;51.906;7.674;2023-07-20T12:21:35;27.30;65.20
11744;DHT22;5929;51.906;7.674;2023-07-20T12:24:03;26.60;65.70
11744;DHT22;5929;51.906;7.674;2023-07-20T12:26:30;26.30;68.70
11744;DHT22;5929;51.906;7.674;2023-07-20T12:29:01;26.20;64.80
11744;DHT22;5929;51.906;7.674;2023-07-20T12:31:36;25.30;68.60
11744;DHT22;5929;51.906;7.674;2023-07-20T12:34:03;24.70;68.60
11744;DHT22;5929;51.906;7.674;2023-07-20T12:36:30;23.90;68.60
11744;DHT22;5929;51.906;7.674;2023-07-20T12:38:57;23.30;70.00
11744;DHT22;5929;51.906;7.674;2023-07-20T12:41:26;22.80;71.70
11744;DHT22;5929;51.906;7.674;2023-07-20T12:43:54;22.40;76.20
11744;DHT22;5929;51.906;7.674;2023-07-20T12:46:24;22.30;74.70
11744;DHT22;5929;51.906;7.674;2023-07-20T12:48:51;22.50;72.30
11744;DHT22;5929;51.906;7.674;2023-07-20T12:51:19;23.10;74.30
11744;DHT22;5929;51.906;7.674;2023-07-20T12:53:46;24.10;71.80
11744;DHT22;5929;51.906;7.674;2023-07-20T12:56:13;24.10;71.80
11744;DHT22;5929;51.906;7.674;2023-07-20T12:58:40;23.70;70.70
11744;DHT22;5929;51.906;7.674;2023-07-20T13:01:08;23.40;72.40
11744;DHT22;5929;51.906;7.674;2023-07-20T13:03:38;22.90;72.30
11744;DHT22;5929;51.906;7.674;2023-07-20T13:06:05;22.70;73.70
11744;DHT22;5929;51.906;7.674;2023-07-20T13:08:32;22.30;72.60
11744;DHT22;5929;51.906;7.674;2023-07-20T13:10:59;22.10;72.90
11744;DHT22;5929;51.906;7.674;2023-07-20T13:13:26;21.90;72.20
11744;DHT22;5929;51.906;7.674;2023-07-20T13:15:53;21.90;77.80
11744;DHT22;5929;51.906;7.674;2023-07-20T13:18:20;22.30;72.20
11744;DHT22;5929;51.906;7.674;2023-07-20T13:20:48;22.80;73.40
11744;DHT22;5929;51.906;7.674;2023-07-20T13:23:15;22.70;71.50
11744;DHT22;5929;51.906;7.674;2023-07-20T13:25:42;22.60;70.20
11744;DHT22;5929;51.906;7.674;2023-07-20T13:28:09;22.70;69.10
11744;DHT22;5929;51.906;7.674;2023-07-20T13:30:36;23.30;71.00
11744;DHT22;5929;51.906;7.674;2023-07-20T13:33:03;24.40;68.00
11744;DHT22;5929;51.906;7.674;2023-07-20T13:35:30;24.70;69.10
11744;DHT22;5929;51.906;7.674;2023-07-20T13:37:59;25.60;66.10
11744;DHT22;5929;51.906;7.674;2023-07-20T13:40:26;25.50;67.30
11744;DHT22;5929;51.906;7.674;2023-07-20T13:42:55;25.20;67.00
11744;DHT22;5929;51.906;7.674;2023-07-20T13:45:22;24.60;64.20
11744;DHT22;5929;51.906;7.674;2023-07-20T13:47:49;24.00;70.90
11744;DHT22;5929;51.906;7.674;2023-07-20T13:50:16;23.60;73.70
11744;DHT22;5929;51.906;7.674;2023-07-20T13:52:43;23.90;71.00
11744;DHT22;5929;51.906;7.674;2023-07-20T13:55:11;24.40;70.10
11744;DHT22;5929;51.906;7.674;2023-07-20T13:57:38;24.30;66.70
11744;DHT22;5929;51.906;7.674;2023-07-20T14:00:06;24.10;66.40
11744;DHT22;5929;51.906;7.674;2023-07-20T14:02:36;23.70;66.40
11744;DHT22;5929;51.906;7.674;2023-07-20T14:05:03;23.40;68.20
11744;DHT22;5929;51.906;7.674;2023-07-20T14:07:30;23.10;70.20
11744;DHT22;5929;51.906;7.674;2023-07-20T14:09:57;22.90;73.30
11744;DHT22;5929;51.906;7.674;2023-07-20T14:12:26;22.60;71.20
11744;DHT22;5929;51.906;7.674;2023-07-20T14:14:55;22.40;71.70
11744;DHT22;5929;51.906;7.674;2023-07-20T14:17:22;22.50;74.30
11744;DHT22;5929;51.906;7.674;2023-07-20T14:19:49;23.70;69.00
11744;DHT22;5929;51.906;7.674;2023-07-20T14:22:17;24.40;72.10
11744;DHT22;5929;51.906;7.674;2023-07-20T14:24:43;24.20;68.80
11744;DHT22;5929;51.906;7.674;2023-07-20T14:27:11;23.60;68.90
11744;DHT22;5929;51.906;7.674;2023-07-20T14:29:39;23.60;74.00
11744;DHT22;5929;51.906;7.674;2023-07-20T14:32:06;23.50;76.60
11744;DHT22;5929;51.906;7.674;2023-07-20T14:34:33;23.40;78.60
11744;DHT22;5929;51.906;7.674;2023-07-20T14:37:01;23.20;79.40
11744;DHT22;5929;51.906;7.674;2023-07-20T14:39:29;22.70;80.90
11744;DHT22;5929;51.906;7.674;2023-07-20T14:41:56;22.50;78.50
11744;DHT22;5929;51.906;7.674;2023-07-20T14:44:24;22.40;82.80
11744;DHT22;5929;51.906;7.674;2023-07-20T14:46:52;22.50;83.30
11744;DHT22;5929;51.906;7.674;2023-07-20T14:49:19;22.60;82.70
11744;DHT22;5929;51.906;7.674;2023-07-20T14:51:45;23.10;80.00
11744;DHT22;5929;51.906;7.674;2023-07-20T14:54:12;23.70;78.20
11744;DHT22;5929;51.906;7.674;2023-07-20T14:56:39;24.80;77.70
11744;DHT22;5929;51.906;7.674;2023-07-20T14:59:14;25.50;71.20
11744;DHT22;5929;51.906;7.674;2023-07-20T15:01:43;25.40;71.70
11744;DHT22;5929;51.906;7.674;2023-07-20T15:04:12;26.30;70.40
11744;DHT22;5929;51.906;7.674;2023-07-20T15:06:39;27.00;66.30
11744;DHT22;5929;51.906;7.674;2023-07-20T15:09:06;27.20;66.00
11744;DHT22;5929;51.906;7.674;2023-07-20T15:11:33;27.10;66.90
11744;DHT22;5929;51.906;7.674;2023-07-20T15:14:00;26.70;66.80
11744;DHT22;5929;51.906;7.674;2023-07-20T15:16:27;26.00;69.90
11744;DHT22;5929;51.906;7.674;2023-07-20T15:18:54;26.40;70.10
11744;DHT22;5929;51.906;7.674;2023-07-20T15:21:22;26.50;70.10
11744;DHT22;5929;51.906;7.674;2023-07-20T15:23:49;26.60;71.90
11744;DHT22;5929;51.906;7.674;2023-07-20T15:26:16;26.50;72.30
11744;DHT22;5929;51.906;7.674;2023-07-20T15:28:43;25.90;69.60
11744;DHT22;5929;51.906;7.674;2023-07-20T15:31:10;25.50;72.10
11744;DHT22;5929;51.906;7.674;2023-07-20T15:33:39;25.80;72.80
11744;DHT22;5929;51.906;7.674;2023-07-20T15:36:06;25.80;70.00
11744;DHT22;5929;51.906;7.674;2023-07-20T15:38:35;25.90;70.60
11744;DHT22;5929;51.906;7.674;2023-07-20T15:41:01;26.30;69.60
11744;DHT22;5929;51.906;7.674;2023-07-20T15:43:29;25.70;66.50
11744;DHT22;5929;51.906;7.674;2023-07-20T15:46:01;26.10;69.00
11744;DHT22;5929;51.906;7.674;2023-07-20T15:48:28;25.40;70.50
11744;DHT22;5929;51.906;7.674;2023-07-20T15:50:55;24.80;74.10
11744;DHT22;5929;51.906;7.674;2023-07-20T15:53:22;24.30;68.30
11744;DHT22;5929;51.906;7.674;2023-07-20T15:55:54;24.30;68.30